Time;durP1;ratioP1;P1;durP2;ratioP2;P2;SDS_P1;SDS_P2;PMS_P1;PMS_P2;Temp;Humidity;BMP_temperature;BMP_pressure;BME280_temperature;BME280_humidity;BME280_pressure;Samples;Min_cycle;Max_cycle;Signal;HPM_P1;HPM_P2
2023/02/19 00:02:19;;;;;;;;;;;;;;;;;;8491149;27;27138;-87
2023/02/19 00:06:19;;;;;;;;;;;;;;;;;;8483354;27;28879;-85
2023/02/19 00:10:19;;;;;;;;;;;;;;;;;;8481233;27;28559;-84
2023/02/19 00:14:19;;;;;;;;;;;;;;;;;;8486200;27;28731;-83
2023/02/19 00:18:19;;;;;;;;;;;;;;;;;;8490376;27;27815;-83
2023/02/19 00:22:19;;;;;;;;;;;;;;;;;;8488151;27;27108;-83
2023/02/19 00:26:19;;;;;;;;;;;;;;;;;;8487821;27;30026;-82
2023/02/19 00:30:19;;;;;;;;;;;;;;;;;;8484133;27;27262;-84
2023/02/19 00:34:19;;;;;;;;;;;;;;;;;;8484449;27;28861;-83
2023/02/19 00:38:20;;;;;;;;;;;;;;;;;;8477445;27;27472;-84
2023/02/19 00:42:20;;;;;;;;;;;;;;;;;;8486276;27;28403;-82
2023/02/19 00:46:20;;;;;;;;;;;;;;;;;;8485087;27;27653;-83
2023/02/19 00:50:20;;;;;;;;;;;;;;;;;;8477465;27;29031;-83
2023/02/19 00:54:21;;;;;;;;;;;;;;;;;;8485289;27;28908;-84
2023/02/19 00:58:21;;;;;;;;;;;;;;;;;;8485017;27;27134;-84
2023/02/19 01:02:21;;;;;;;;;;;;;;;;;;8478464;27;27400;-83
2023/02/19 01:06:21;;;;;;;;;;;;;;;;;;8484196;27;28426;-83
2023/02/19 01:10:21;;;;;;;;;;;;;;;;;;8486689;27;28584;-83
2023/02/19 01:14:21;;;;;;;;;;;;;;;;;;8475252;27;28311;-80
2023/02/19 01:18:22;;;;;;;;;;;;;;;;;;8478129;27;28574;-83
2023/02/19 01:22:22;;;;;;;;;;;;;;;;;;8479115;27;29566;-83
2023/02/19 01:26:22;;;;;;;;;;;;;;;;;;8483563;27;29672;-85
2023/02/19 01:30:22;;;;;;;;;;;;;;;;;;8484035;27;28553;-82
2023/02/19 01:34:22;;;;;;;;;;;;;;;;;;8479910;27;28819;-85
2023/02/19 01:38:22;;;;;;;;;;;;;;;;;;8488722;27;27139;-83
2023/02/19 01:42:22;;;;;;;;;;;;;;;;;;8482233;27;27059;-83
2023/02/19 01:46:22;;;;;;;;;;;;;;;;;;8487887;27;27226;-84
2023/02/19 01:50:22;;;;;;;;;;;;;;;;;;8477187;27;29825;-83
2023/02/19 01:54:22;;;;;;;;;;;;;;;;;;8476919;27;28770;-83
2023/02/19 01:58:22;;;;;;;;;;;;;;;;;;8478896;27;29941;-84
2023/02/19 02:02:24;;;;;;;;;;;;;;;;;;8482759;27;27296;-85
2023/02/19 02:06:24;;;;;;;;;;;;;;;;;;8482067;27;28889;-84
2023/02/19 02:10:24;;;;;;;;;;;;;;;;;;8475887;27;27626;-87
2023/02/19 02:14:24;;;;;;;;;;;;;;;;;;8480193;27;28723;-83
2023/02/19 02:18:24;;;;;;;;;;;;;;;;;;8478803;27;28045;-83
2023/02/19 02:22:24;;;;;;;;;;;;;;;;;;8476228;27;27436;-84
2023/02/19 02:26:24;;;;;;;;;;;;;;;;;;8486784;27;27821;-84
2023/02/19 02:30:25;;;;;;;;;;;;;;;;;;8480325;27;27149;-83
2023/02/19 02:34:25;;;;;;;;;;;;;;;;;;8477529;27;28726;-86
2023/02/19 02:38:26;;;;;;;;;;;;;;;;;;8473452;27;27424;-82
2023/02/19 02:42:26;;;;;;;;;;;;;;;;;;8486035;27;28682;-86
2023/02/19 02:46:26;;;;;;;;;;;;;;;;;;8490590;27;29814;-83
2023/02/19 02:50:26;;;;;;;;;;;;;;;;;;8477130;27;28520;-83
2023/02/19 02:58:45;;;;;;;;;;;;;;;;;;8484225;27;27465;-84
2023/02/19 03:02:45;;;;;;;;;;;;;;;;;;8477865;27;28166;-82
2023/02/19 03:06:45;;;;;;;;;;;;;;;;;;8489804;27;27241;-81
2023/02/19 03:10:45;;;;;;;;;;;;;;;;;;8490237;27;27142;-83
2023/02/19 03:19:19;;;;;;;;;;;;;;;;;;8485564;27;27165;-84
2023/02/19 03:23:19;;;;;;;;;;;;;;;;;;8488034;27;28878;-83
2023/02/19 03:27:19;;;;;;;;;;;;;;;;;;8493580;27;28592;-83
2023/02/19 03:31:20;;;;;;;;;;;;;;;;;;8485310;27;28467;-83
2023/02/19 03:35:20;;;;;;;;;;;;;;;;;;8490782;27;27321;-82
2023/02/19 03:39:20;;;;;;;;;;;;;;;;;;8487457;27;28505;-85
2023/02/19 03:43:20;;;;;;;;;;;;;;;;;;8485059;27;27215;-84
2023/02/19 03:47:20;;;;;;;;;;;;;;;;;;8489341;27;28409;-83
2023/02/19 03:51:20;;;;;;;;;;;;;;;;;;8485281;27;27207;-84
2023/02/19 03:55:20;;;;;;;;;;;;;;;;;;8486920;27;28820;-84
2023/02/19 03:59:20;;;;;;;;;;;;;;;;;;8490793;27;28834;-84
2023/02/19 04:03:20;;;;;;;;;;;;;;;;;;8484437;27;27852;-84
2023/02/19 04:07:20;;;;;;;;;;;;;;;;;;8486694;27;27784;-84
2023/02/19 04:11:21;;;;;;;;;;;;;;;;;;8488917;27;29682;-87
2023/02/19 04:15:21;;;;;;;;;;;;;;;;;;8483022;27;27636;-85
2023/02/19 04:19:21;;;;;;;;;;;;;;;;;;8485636;27;27245;-82
2023/02/19 04:23:21;;;;;;;;;;;;;;;;;;8482527;27;28587;-83
2023/02/19 04:27:21;;;;;;;;;;;;;;;;;;8487459;27;29034;-85
2023/02/19 04:31:21;;;;;;;;;;;;;;;;;;8482809;27;28993;-85
2023/02/19 04:35:21;;;;;;;;;;;;;;;;;;8493316;27;28451;-82
2023/02/19 04:39:21;;;;;;;;;;;;;;;;;;8489869;27;27717;-83
2023/02/19 04:43:22;;;;;;;;;;;;;;;;;;8493164;27;28533;-85
2023/02/19 04:47:22;;;;;;;;;;;;;;;;;;8493558;27;28878;-83
2023/02/19 04:51:22;;;;;;;;;;;;;;;;;;8500347;27;27337;-86
2023/02/19 04:55:22;;;;;;;;;;;;;;;;;;8485237;27;28728;-85
2023/02/19 04:59:22;;;;;;;;;;;;;;;;;;8487143;27;28587;-82
2023/02/19 05:03:22;;;;;;;;;;;;;;;;;;8493664;27;27888;-82
2023/02/19 05:07:22;;;;;;;;;;;;;;;;;;8488137;27;28706;-83
2023/02/19 05:11:22;;;;;;;;;;;;;;;;;;8485614;27;27850;-82
2023/02/19 05:15:22;;;;;;;;;;;;;;;;;;8493828;27;28759;-81
2023/02/19 05:19:22;;;;;;;;;;;;;;;;;;8490981;27;27624;-83
2023/02/19 05:23:23;;;;;;;;;;;;;;;;;;8499968;27;28772;-83
2023/02/19 05:27:23;;;;;;;;;;;;;;;;;;8497159;27;27703;-83
2023/02/19 05:31:23;;;;;;;;;;;;;;;;;;8497580;27;27736;-84
2023/02/19 05:35:23;;;;;;;;;;;;;;;;;;8487333;27;28203;-84
2023/02/19 05:39:23;;;;;;;;;;;;;;;;;;8487425;27;28544;-85
2023/02/19 05:43:23;;;;;;;;;;;;;;;;;;8494137;27;27183;-83
2023/02/19 05:47:23;;;;;;;;;;;;;;;;;;8489537;27;27690;-83
2023/02/19 05:51:23;;;;;;;;;;;;;;;;;;8490419;27;27582;-83
2023/02/19 05:55:23;;;;;;;;;;;;;;;;;;8492070;27;27112;-84
2023/02/19 05:59:23;;;;;;;;;;;;;;;;;;8486909;27;29940;-84
2023/02/19 06:03:24;;;;;;;;;;;;;;;;;;8489602;27;28755;-83
2023/02/19 06:07:24;;;;;;;;;;;;;;;;;;8499176;27;28766;-85
2023/02/19 06:11:24;;;;;;;;;;;;;;;;;;8496009;27;28824;-84
2023/02/19 06:15:24;;;;;;;;;;;;;;;;;;8500718;27;28245;-84
2023/02/19 06:19:24;;;;;;;;;;;;;;;;;;8498817;27;28997;-84
2023/02/19 06:23:24;;;;;;;;;;;;;;;;;;8494574;27;27831;-84
2023/02/19 06:27:24;;;;;;;;;;;;;;;;;;8499490;27;27204;-84
2023/02/19 06:31:24;;;;;;;;;;;;;;;;;;8494194;27;28762;-83
2023/02/19 06:35:24;;;;;;;;;;;;;;;;;;8502492;27;28144;-83
2023/02/19 06:39:24;;;;;;;;;;;;;;;;;;8492281;27;28779;-82
2023/02/19 06:43:25;;;;;;;;;;;;;;;;;;8504046;27;28405;-83
2023/02/19 06:47:25;;;;;;;;;;;;;;;;;;8497360;27;29730;-82
2023/02/19 06:51:27;;;;;;;;;;;;;;;;;;8494685;27;29080;-83
2023/02/19 06:55:27;;;;;;;;;;;;;;;;;;8496118;27;27101;-84
2023/02/19 06:59:27;;;;;;;;;;;;;;;;;;8490759;27;28121;-82
2023/02/19 07:03:27;;;;;;;;;;;;;;;;;;8493494;27;27499;-83
2023/02/19 07:07:28;;;;;;;;;;;;;;;;;;8502640;27;27109;-83
2023/02/19 07:11:28;;;;;;;;;;;;;;;;;;8494098;27;28793;-83
2023/02/19 07:15:28;;;;;;;;;;;;;;;;;;8502936;27;28483;-83
2023/02/19 07:19:28;;;;;;;;;;;;;;;;;;8492989;27;27942;-86
2023/02/19 07:23:28;;;;;;;;;;;;;;;;;;8499618;27;28792;-85
2023/02/19 07:27:28;;;;;;;;;;;;;;;;;;8500491;27;28728;-83
2023/02/19 07:31:28;;;;;;;;;;;;;;;;;;8499031;27;28740;-86
2023/02/19 07:35:28;;;;;;;;;;;;;;;;;;8496315;27;28341;-85
2023/02/19 07:39:28;;;;;;;;;;;;;;;;;;8495961;27;28157;-84
2023/02/19 07:43:28;;;;;;;;;;;;;;;;;;8492784;27;28529;-81
2023/02/19 07:47:28;;;;;;;;;;;;;;;;;;8486347;27;27274;-82
2023/02/19 07:51:28;;;;;;;;;;;;;;;;;;8493883;27;28384;-82
2023/02/19 07:55:29;;;;;;;;;;;;;;;;;;8502556;27;28419;-81
2023/02/19 07:59:29;;;;;;;;;;;;;;;;;;8490348;27;28844;-82
2023/02/19 08:03:29;;;;;;;;;;;;;;;;;;8493409;27;27639;-82
2023/02/19 08:07:29;;;;;;;;;;;;;;;;;;8505317;27;27770;-82
2023/02/19 08:15:48;;;;;;;;;;;;;;;;;;8486029;27;27392;-81
2023/02/19 08:19:48;;;;;;;;;;;;;;;;;;8494132;27;28951;-82
2023/02/19 08:23:48;;;;;;;;;;;;;;;;;;8497195;27;28509;-82
2023/02/19 08:27:48;;;;;;;;;;;;;;;;;;8496583;27;28532;-85
2023/02/19 08:31:49;;;;;;;;;;;;;;;;;;8491647;27;28532;-82
2023/02/19 08:35:49;;;;;;;;;;;;;;;;;;8490085;27;28451;-82
2023/02/19 08:39:49;;;;;;;;;;;;;;;;;;8491666;27;29013;-82
2023/02/19 08:43:49;;;;;;;;;;;;;;;;;;8496673;27;28432;-82
2023/02/19 08:47:49;;;;;;;;;;;;;;;;;;8494570;27;28439;-81
2023/02/19 08:51:49;;;;;;;;;;;;;;;;;;8484271;27;28550;-82
2023/02/19 08:55:49;;;;;;;;;;;;;;;;;;8494712;27;27243;-82
2023/02/19 08:59:49;;;;;;;;;;;;;;;;;;8486383;27;28389;-83
2023/02/19 09:03:49;;;;;;;;;;;;;;;;;;8500344;27;28085;-83
2023/02/19 09:07:49;;;;;;;;;;;;;;;;;;8498747;27;28901;-84
2023/02/19 09:11:49;;;;;;;;;;;;;;;;;;8481589;27;27433;-83
2023/02/19 09:15:49;;;;;;;;;;;;;;;;;;8492203;27;28647;-85
2023/02/19 09:19:49;;;;;;;;;;;;;;;;;;8492620;27;27191;-83
2023/02/19 09:23:50;;;;;;;;;;;;;;;;;;8484098;27;28010;-78
2023/02/19 09:27:50;;;;;;;;;;;;;;;;;;8501707;27;28448;-81
2023/02/19 09:31:50;;;;;;;;;;;;;;;;;;8496864;27;28496;-83
2023/02/19 09:35:50;;;;;;;;;;;;;;;;;;8502169;27;28788;-83
2023/02/19 09:39:50;;;;;;;;;;;;;;;;;;8489329;27;29018;-81
2023/02/19 09:43:50;;;;;;;;;;;;;;;;;;8488131;27;27372;-83
2023/02/19 09:47:50;;;;;;;;;;;;;;;;;;8484182;27;28466;-82
2023/02/19 09:51:50;;;;;;;;;;;;;;;;;;8488666;27;27357;-82
2023/02/19 09:55:50;;;;;;;;;;;;;;;;;;8498812;27;27134;-82
2023/02/19 09:59:50;;;;;;;;;;;;;;;;;;8505577;27;27376;-81
2023/02/19 10:03:50;;;;;;;;;;;;;;;;;;8498910;27;28744;-81
2023/02/19 10:07:51;;;;;;;;;;;;;;;;;;8492214;27;28044;-82
2023/02/19 10:11:51;;;;;;;;;;;;;;;;;;8498182;27;28726;-81
2023/02/19 10:15:51;;;;;;;;;;;;;;;;;;8491849;27;28203;-81
2023/02/19 10:19:51;;;;;;;;;;;;;;;;;;8489721;27;27192;-83
2023/02/19 10:23:51;;;;;;;;;;;;;;;;;;8485184;27;28414;-82
2023/02/19 10:27:51;;;;;;;;;;;;;;;;;;8482444;27;28505;-81
2023/02/19 10:31:51;;;;;;;;;;;;;;;;;;8482256;27;27439;-84
2023/02/19 10:35:51;;;;;;;;;;;;;;;;;;8488188;27;27473;-84
2023/02/19 10:39:51;;;;;;;;;;;;;;;;;;8489496;27;27190;-83
2023/02/19 10:43:51;;;;;;;;;;;;;;;;;;8487297;27;28845;-82
2023/02/19 10:47:51;;;;;;;;;;;;;;;;;;8486987;27;27717;-81
2023/02/19 10:51:51;;;;;;;;;;;;;;;;;;8489204;27;28177;-80
2023/02/19 10:55:51;;;;;;;;;;;;;;;;;;8483531;27;27188;-80
2023/02/19 10:59:52;;;;;;;;;;;;;;;;;;8484063;27;27685;-79
2023/02/19 11:03:52;;;;;;;;;;;;;;;;;;8484647;27;27614;-79
2023/02/19 11:07:52;;;;;;;;;;;;;;;;;;8489370;27;28332;-82
2023/02/19 11:11:52;;;;;;;;;;;;;;;;;;8480004;27;27358;-81
2023/02/19 11:15:52;;;;;;;;;;;;;;;;;;8475308;27;28112;-80
2023/02/19 11:19:52;;;;;;;;;;;;;;;;;;8482399;27;29595;-80
2023/02/19 11:23:52;;;;;;;;;;;;;;;;;;8492492;27;28446;-80
2023/02/19 11:27:52;;;;;;;;;;;;;;;;;;8493038;27;29009;-79
2023/02/19 11:31:52;;;;;;;;;;;;;;;;;;8489067;27;28711;-79
2023/02/19 11:35:52;;;;;;;;;;;;;;;;;;8490739;27;27557;-78
2023/02/19 11:39:53;;;;;;;;;;;;;;;;;;8487334;27;28596;-79
2023/02/19 11:43:53;;;;;;;;;;;;;;;;;;8481018;27;28739;-81
2023/02/19 11:47:53;;;;;;;;;;;;;;;;;;8479190;27;28429;-79
2023/02/19 11:51:53;;;;;;;;;;;;;;;;;;8487908;27;27454;-81
2023/02/19 11:55:53;;;;;;;;;;;;;;;;;;8485289;27;28514;-81
2023/02/19 11:59:53;;;;;;;;;;;;;;;;;;8488020;27;28735;-80
2023/02/19 12:03:53;;;;;;;;;;;;;;;;;;8477027;27;27269;-80
2023/02/19 12:07:54;;;;;;;;;;;;;;;;;;8489113;27;28787;-82
2023/02/19 12:11:54;;;;;;;;;;;;;;;;;;8475322;27;28776;-83
2023/02/19 12:15:54;;;;;;;;;;;;;;;;;;8483967;27;28708;-83
2023/02/19 12:19:54;;;;;;;;;;;;;;;;;;8483252;27;28420;-82
2023/02/19 12:23:54;;;;;;;;;;;;;;;;;;8478637;27;28093;-81
2023/02/19 12:27:54;;;;;;;;;;;;;;;;;;8495864;27;28505;-82
2023/02/19 12:31:54;;;;;;;;;;;;;;;;;;8481678;27;28614;-84
2023/02/19 12:35:55;;;;;;;;;;;;;;;;;;8484596;27;28434;-82
2023/02/19 12:39:55;;;;;;;;;;;;;;;;;;8482474;27;28590;-84
2023/02/19 12:43:55;;;;;;;;;;;;;;;;;;8491832;27;28635;-84
2023/02/19 12:47:55;;;;;;;;;;;;;;;;;;8484814;27;28760;-83
2023/02/19 12:51:56;;;;;;;;;;;;;;;;;;8480703;27;27497;-83
2023/02/19 12:55:56;;;;;;;;;;;;;;;;;;8487556;27;28272;-84
2023/02/19 12:59:58;;;;;;;;;;;;;;;;;;8489988;27;27258;-81
2023/02/19 13:03:59;;;;;;;;;;;;;;;;;;8477557;27;27076;-82
2023/02/19 13:07:59;;;;;;;;;;;;;;;;;;8477129;27;27482;-83
2023/02/19 13:11:59;;;;;;;;;;;;;;;;;;8481070;27;27236;-83
2023/02/19 13:15:59;;;;;;;;;;;;;;;;;;8487197;27;28628;-82
2023/02/19 13:19:59;;;;;;;;;;;;;;;;;;8483933;27;27250;-82
2023/02/19 13:24:01;;;;;;;;;;;;;;;;;;8490839;27;27520;-84
2023/02/19 13:28:01;;;;;;;;;;;;;;;;;;8496220;27;28296;-83
2023/02/19 13:32:01;;;;;;;;;;;;;;;;;;8483706;27;28765;-82
2023/02/19 13:36:04;;;;;;;;;;;;;;;;;;8488875;27;28039;-81
2023/02/19 13:40:06;;;;;;;;;;;;;;;;;;8478223;27;48512;-81
2023/02/19 13:44:07;;;;;;;;;;;;;;;;;;8486287;27;27660;-81
2023/02/19 13:48:07;;;;;;;;;;;;;;;;;;8480078;27;28607;-80
2023/02/19 13:52:07;;;;;;;;;;;;;;;;;;8494737;27;29175;-83
2023/02/19 13:56:07;;;;;;;;;;;;;;;;;;8483985;27;27060;-82
2023/02/19 14:00:07;;;;;;;;;;;;;;;;;;8479168;27;27337;-82
2023/02/19 14:04:07;;;;;;;;;;;;;;;;;;8474227;27;27721;-83
2023/02/19 14:08:07;;;;;;;;;;;;;;;;;;8482337;27;28435;-82
2023/02/19 14:12:14;;;;;;;;;;;;;;;;;;8485090;27;28751;-81
2023/02/19 14:16:14;;;;;;;;;;;;;;;;;;8483005;27;27793;-83
2023/02/19 14:20:14;;;;;;;;;;;;;;;;;;8477565;27;28661;-82
2023/02/19 14:24:14;;;;;;;;;;;;;;;;;;8474720;27;29633;-81
2023/02/19 14:28:14;;;;;;;;;;;;;;;;;;8482570;27;28723;-80
2023/02/19 14:32:14;;;;;;;;;;;;;;;;;;8489989;27;28158;-79
2023/02/19 14:36:14;;;;;;;;;;;;;;;;;;8482631;27;27881;-80
2023/02/19 14:40:14;;;;;;;;;;;;;;;;;;8486106;27;28319;-79
2023/02/19 14:44:14;;;;;;;;;;;;;;;;;;8487457;27;27271;-81
2023/02/19 14:48:14;;;;;;;;;;;;;;;;;;8482294;27;27306;-80
2023/02/19 14:52:14;;;;;;;;;;;;;;;;;;8482229;27;27449;-81
2023/02/19 14:56:15;;;;;;;;;;;;;;;;;;8484463;27;28518;-81
2023/02/19 15:00:15;;;;;;;;;;;;;;;;;;8484063;27;28255;-81
2023/02/19 15:04:15;;;;;;;;;;;;;;;;;;8491438;27;28985;-81
2023/02/19 15:08:15;;;;;;;;;;;;;;;;;;8476963;27;28640;-83
2023/02/19 15:12:15;;;;;;;;;;;;;;;;;;8485620;27;27932;-81
2023/02/19 15:16:15;;;;;;;;;;;;;;;;;;8487122;27;28224;-81
2023/02/19 15:20:15;;;;;;;;;;;;;;;;;;8485445;27;28446;-81
2023/02/19 15:24:15;;;;;;;;;;;;;;;;;;8481686;27;27307;-82
2023/02/19 15:31:07;;;;;;;;;;;;;;;;;;8421233;27;28047;-81
2023/02/19 15:38:33;;;;;;;;;;;;;;;;;;8511711;27;28913;-80
2023/02/19 15:42:33;;;;;;;;;;;;;;;;;;8502397;27;27345;-81
2023/02/19 15:46:34;;;;;;;;;;;;;;;;;;8506083;27;27309;-81
2023/02/19 15:50:34;;;;;;;;;;;;;;;;;;8501722;27;28662;-79
2023/02/19 15:54:34;;;;;;;;;;;;;;;;;;8492344;27;29135;-83
2023/02/19 15:58:34;;;;;;;;;;;;;;;;;;8503667;27;29762;-81
2023/02/19 16:02:34;;;;;;;;;;;;;;;;;;8510411;27;27511;-81
2023/02/19 16:06:34;;;;;;;;;;;;;;;;;;8508663;27;27172;-79
2023/02/19 16:10:34;;;;;;;;;;;;;;;;;;8507411;27;28744;-80
2023/02/19 16:14:34;;;;;;;;;;;;;;;;;;8503744;27;27289;-79
2023/02/19 16:18:34;;;;;;;;;;;;;;;;;;8502555;27;28904;-80
2023/02/19 16:22:34;;;;;;;;;;;;;;;;;;8503389;27;28510;-81
2023/02/19 16:26:34;;;;;;;;;;;;;;;;;;8505200;27;28494;-80
2023/02/19 16:30:35;;;;;;;;;;;;;;;;;;8503753;27;28564;-80
2023/02/19 16:34:35;;;;;;;;;;;;;;;;;;8507466;27;28604;-80
2023/02/19 16:38:35;;;;;;;;;;;;;;;;;;8503919;27;27503;-81
2023/02/19 16:42:35;;;;;;;;;;;;;;;;;;8503502;27;27826;-79
2023/02/19 16:46:39;;;;;;;;;;;;;;;;;;8492478;27;27894;-79
2023/02/19 16:50:42;;;;;;;;;;;;;;;;;;8477903;27;28462;-79
2023/02/19 16:54:42;;;;;;;;;;;;;;;;;;8480715;27;28023;-80
2023/02/19 16:58:43;;;;;;;;;;;;;;;;;;8480156;27;28572;-80
2023/02/19 17:02:43;;;;;;;;;;;;;;;;;;8461664;27;27185;-80
2023/02/19 17:06:44;;;;;;;;;;;;;;;;;;8469811;27;27696;-80
2023/02/19 17:10:44;;;;;;;;;;;;;;;;;;8481800;27;27873;-79
2023/02/19 17:14:44;;;;;;;;;;;;;;;;;;8488241;27;27250;-80
2023/02/19 17:18:44;;;;;;;;;;;;;;;;;;8480745;27;28502;-79
2023/02/19 17:22:44;;;;;;;;;;;;;;;;;;8486887;27;28431;-80
2023/02/19 17:26:44;;;;;;;;;;;;;;;;;;8480904;27;28526;-80
2023/02/19 17:30:45;;;;;;;;;;;;;;;;;;8488472;27;27215;-79
2023/02/19 17:34:48;;;;;;;;;;;;;;;;;;8473671;27;28464;-79
2023/02/19 17:38:48;;;;;;;;;;;;;;;;;;8472233;27;27374;-80
2023/02/19 17:42:48;;;;;;;;;;;;;;;;;;8476756;27;29603;-80
2023/02/19 17:46:48;;;;;;;;;;;;;;;;;;8472683;27;27560;-80
2023/02/19 17:53:40;;;;;;;;;;;;;;;;;;8510078;27;27054;-80
2023/02/19 17:57:40;;;;;;;;;;;;;;;;;;8494934;27;28869;-81
2023/02/19 18:01:40;;;;;;;;;;;;;;;;;;8491229;27;28780;-81
2023/02/19 18:05:40;;;;;;;;;;;;;;;;;;8487373;27;27297;-79
2023/02/19 18:09:40;;;;;;;;;;;;;;;;;;8493386;27;27945;-81
2023/02/19 18:13:40;;;;;;;;;;;;;;;;;;8485295;27;29569;-81
2023/02/19 18:17:40;;;;;;;;;;;;;;;;;;8487812;27;29092;-80
2023/02/19 18:21:40;;;;;;;;;;;;;;;;;;9185313;22;28397;-79
2023/02/19 18:25:40;;;;;;;;;;;;;;;;;;8436550;27;28486;-79
2023/02/19 18:29:41;;;;;;;;;;;;;;;;;;8489197;22;27870;-82
2023/02/19 18:33:41;;;;;;;;;;;;;;;;;;8443842;22;28553;-79
2023/02/19 18:37:41;;;;;;;;;;;;;;;;;;8428171;27;27395;-80
2023/02/19 18:41:41;;;;;;;;;;;;;;;;;;8545191;22;27671;-82
2023/02/19 18:49:52;;;;;;;;;;;;;;;;;;8446556;27;27273;-81
2023/02/19 18:53:52;;;;;;;;;;;;;;;;;;8423731;27;28542;-82
2023/02/19 18:57:52;;;;;;;;;;;;;;;;;;8427123;27;28517;-82
2023/02/19 19:01:52;;;;;;;;;;;;;;;;;;8417881;27;27407;-82
2023/02/19 19:05:52;;;;;;;;;;;;;;;;;;8421271;27;28805;-83
2023/02/19 19:09:52;;;;;;;;;;;;;;;;;;8413790;27;28747;-81
2023/02/19 19:13:52;;;;;;;;;;;;;;;;;;8419770;27;27173;-84
2023/02/19 19:17:52;;;;;;;;;;;;;;;;;;8425786;27;27556;-84
2023/02/19 19:21:53;;;;;;;;;;;;;;;;;;8429976;27;27412;-83
2023/02/19 19:25:53;;;;;;;;;;;;;;;;;;8418986;27;27798;-83
2023/02/19 19:29:53;;;;;;;;;;;;;;;;;;8427002;27;27145;-83
2023/02/19 19:33:53;;;;;;;;;;;;;;;;;;8421312;27;27408;-82
2023/02/19 19:37:53;;;;;;;;;;;;;;;;;;8419420;27;29552;-83
2023/02/19 19:41:53;;;;;;;;;;;;;;;;;;8423470;27;28661;-83
2023/02/19 19:45:54;;;;;;;;;;;;;;;;;;8419722;27;27300;-83
2023/02/19 19:49:54;;;;;;;;;;;;;;;;;;8419684;27;27255;-82
2023/02/19 19:53:54;;;;;;;;;;;;;;;;;;8415187;27;28640;-84
2023/02/19 19:57:54;;;;;;;;;;;;;;;;;;8415444;27;27220;-83
2023/02/19 20:01:55;;;;;;;;;;;;;;;;;;8398932;28;28433;-82
2023/02/19 20:05:56;;;;;;;;;;;;;;;;;;8400911;28;27100;-83
2023/02/19 20:09:56;;;;;;;;;;;;;;;;;;8396626;28;28677;-82
2023/02/19 20:13:56;;;;;;;;;;;;;;;;;;8395228;28;29850;-82
2023/02/19 20:17:56;;;;;;;;;;;;;;;;;;8396774;28;28557;-83
2023/02/19 20:21:56;;;;;;;;;;;;;;;;;;8405376;28;28545;-83
2023/02/19 20:25:56;;;;;;;;;;;;;;;;;;8400509;28;28749;-83
2023/02/19 20:29:57;;;;;;;;;;;;;;;;;;8399370;28;28923;-84
2023/02/19 20:33:57;;;;;;;;;;;;;;;;;;8394185;28;28433;-82
2023/02/19 20:37:57;;;;;;;;;;;;;;;;;;8397902;28;27321;-83
2023/02/19 20:41:57;;;;;;;;;;;;;;;;;;8396466;28;29240;-83
2023/02/19 20:45:58;;;;;;;;;;;;;;;;;;8396273;28;28813;-80
2023/02/19 20:49:58;;;;;;;;;;;;;;;;;;8394454;28;27340;-83
2023/02/19 20:53:58;;;;;;;;;;;;;;;;;;8413990;27;28109;-83
2023/02/19 20:57:58;;;;;;;;;;;;;;;;;;8397659;28;28411;-83
2023/02/19 21:01:58;;;;;;;;;;;;;;;;;;8395593;28;27929;-82
2023/02/19 21:05:58;;;;;;;;;;;;;;;;;;8394493;28;28395;-83
2023/02/19 21:09:58;;;;;;;;;;;;;;;;;;8395414;28;27523;-83
2023/02/19 21:13:58;;;;;;;;;;;;;;;;;;8399159;28;27708;-83
2023/02/19 21:17:58;;;;;;;;;;;;;;;;;;8396168;28;27686;-84
2023/02/19 21:21:58;;;;;;;;;;;;;;;;;;8397475;28;28739;-83
2023/02/19 21:25:58;;;;;;;;;;;;;;;;;;8400231;28;27321;-82
2023/02/19 21:29:59;;;;;;;;;;;;;;;;;;8394687;28;28918;-83
2023/02/19 21:33:59;;;;;;;;;;;;;;;;;;8394657;28;29615;-84
2023/02/19 21:37:59;;;;;;;;;;;;;;;;;;8394647;28;27289;-84
2023/02/19 21:41:59;;;;;;;;;;;;;;;;;;8394201;28;29873;-83
2023/02/19 21:45:59;;;;;;;;;;;;;;;;;;8395486;28;27453;-83
2023/02/19 21:49:59;;;;;;;;;;;;;;;;;;8395649;28;28467;-83
2023/02/19 21:53:59;;;;;;;;;;;;;;;;;;8392540;28;28522;-83
2023/02/19 21:57:59;;;;;;;;;;;;;;;;;;8393754;28;27968;-83
2023/02/19 22:02:00;;;;;;;;;;;;;;;;;;8394281;28;28247;-84
2023/02/19 22:06:00;;;;;;;;;;;;;;;;;;8393289;28;27436;-84
2023/02/19 22:10:00;;;;;;;;;;;;;;;;;;8393930;28;27245;-84
2023/02/19 22:14:00;;;;;;;;;;;;;;;;;;8392857;28;27832;-82
2023/02/19 22:18:00;;;;;;;;;;;;;;;;;;8393984;28;28806;-83
2023/02/19 22:22:00;;;;;;;;;;;;;;;;;;8386906;28;28895;-83
2023/02/19 22:26:00;;;;;;;;;;;;;;;;;;8391720;28;28551;-83
2023/02/19 22:30:00;;;;;;;;;;;;;;;;;;8393567;28;27997;-83
2023/02/19 22:34:00;;;;;;;;;;;;;;;;;;8387207;28;28719;-83
2023/02/19 22:38:00;;;;;;;;;;;;;;;;;;8391713;28;27393;-82
2023/02/19 22:42:01;;;;;;;;;;;;;;;;;;8388722;28;29369;-82
2023/02/19 22:46:01;;;;;;;;;;;;;;;;;;8385066;28;29585;-83
2023/02/19 22:50:01;;;;;;;;;;;;;;;;;;8385437;28;28685;-82
2023/02/19 22:54:01;;;;;;;;;;;;;;;;;;8387815;28;28207;-82
2023/02/19 22:58:01;;;;;;;;;;;;;;;;;;8382204;28;28582;-82
2023/02/19 23:02:01;;;;;;;;;;;;;;;;;;8387961;28;27136;-82
2023/02/19 23:06:01;;;;;;;;;;;;;;;;;;8385647;28;28503;-82
2023/02/19 23:10:01;;;;;;;;;;;;;;;;;;8387481;28;28756;-82
2023/02/19 23:14:01;;;;;;;;;;;;;;;;;;8388871;28;27929;-83
2023/02/19 23:18:03;;;;;;;;;;;;;;;;;;8390906;28;27368;-83
2023/02/19 23:22:04;;;;;;;;;;;;;;;;;;8388063;28;28730;-83
2023/02/19 23:26:04;;;;;;;;;;;;;;;;;;8385720;28;28798;-82
2023/02/19 23:30:04;;;;;;;;;;;;;;;;;;8387940;28;29605;-83
2023/02/19 23:34:06;;;;;;;;;;;;;;;;;;8388884;28;27395;-83
2023/02/19 23:38:06;;;;;;;;;;;;;;;;;;8393947;28;28719;-83
2023/02/19 23:42:06;;;;;;;;;;;;;;;;;;8391595;28;28778;-83
2023/02/19 23:46:07;;;;;;;;;;;;;;;;;;8392275;28;27238;-83
2023/02/19 23:50:07;;;;;;;;;;;;;;;;;;8389387;28;28552;-82
2023/02/19 23:54:07;;;;;;;;;;;;;;;;;;8394154;28;29512;-83
2023/02/19 23:58:07;;;;;;;;;;;;;;;;;;8398948;28;28433;-82
